createdAt,value
2018-05-27T00:01:12.396Z,101415.30
2018-05-27T00:03:43.795Z,101415.27
2018-05-27T00:06:14.884Z,101414.69
2018-05-27T00:08:46.006Z,101414.37
2018-05-27T00:11:17.211Z,101412.09
2018-05-27T00:13:47.955Z,101411.77
2018-05-27T00:16:19.901Z,101413.14
2018-05-27T00:18:50.561Z,101408.94
2018-05-27T00:21:22.363Z,101409.66
2018-05-27T00:23:53.459Z,101415.50
2018-05-27T00:26:26.636Z,101416.08
2018-05-27T00:28:57.608Z,101416.00
2018-05-27T00:31:28.594Z,101411.91
2018-05-27T00:34:05.920Z,101416.92
2018-05-27T00:36:38.718Z,101412.52
2018-05-27T00:39:09.430Z,101410.95
2018-05-27T00:41:39.847Z,101404.13
2018-05-27T00:44:12.602Z,101403.41
2018-05-27T00:46:44.287Z,101400.58
2018-05-27T00:49:14.880Z,101406.77
2018-05-27T00:51:46.135Z,101407.19
2018-05-27T00:54:16.856Z,101407.53
2018-05-27T00:56:48.013Z,101396.45
2018-05-27T00:59:19.111Z,101397.16
2018-05-27T01:01:49.983Z,101402.40
2018-05-27T01:04:20.781Z,101402.30
2018-05-27T01:06:52.770Z,101408.77
2018-05-27T01:09:23.184Z,101399.66
2018-05-27T01:12:00.192Z,101396.52
2018-05-27T01:14:35.750Z,101401.86
2018-05-27T01:17:09.540Z,101394.72
2018-05-27T01:19:40.078Z,101393.89
2018-05-27T01:22:10.491Z,101395.31
2018-05-27T01:24:41.346Z,101399.74
2018-05-27T01:27:11.770Z,101392.00
2018-05-27T01:29:44.103Z,101381.00
2018-05-27T01:32:15.883Z,101387.52
2018-05-27T01:37:42.473Z,101382.20
2018-05-27T01:40:13.459Z,101387.13
2018-05-27T01:42:44.432Z,101371.95
2018-05-27T01:45:17.419Z,101383.88
2018-05-27T01:47:47.818Z,101381.14
2018-05-27T01:50:19.735Z,101380.53
2018-05-27T01:53:03.531Z,101374.03
2018-05-27T01:55:35.220Z,101380.83
2018-05-27T01:58:06.423Z,101384.30
2018-05-27T02:00:37.294Z,101378.95
2018-05-27T02:03:09.425Z,101382.19
2018-05-27T02:05:40.888Z,101377.80
2018-05-27T02:08:14.034Z,101373.17
2018-05-27T02:10:45.539Z,101377.47
2018-05-27T02:13:17.948Z,101370.13
2018-05-27T02:15:52.077Z,101362.16
2018-05-27T02:18:24.409Z,101364.47
2018-05-27T02:20:58.610Z,101365.78
2018-05-27T02:23:34.290Z,101363.16
2018-05-27T02:26:08.054Z,101369.86
2018-05-27T02:28:46.205Z,101377.94
2018-05-27T02:31:21.595Z,101371.27
2018-05-27T02:33:54.395Z,101377.13
2018-05-27T02:36:25.413Z,101372.48
2018-05-27T02:39:02.318Z,101378.64
2018-05-27T02:41:35.916Z,101376.48
2018-05-27T02:44:08.894Z,101383.66
2018-05-27T02:46:48.973Z,101382.42
2018-05-27T02:49:27.472Z,101380.34
2018-05-27T02:51:59.338Z,101373.78
2018-05-27T02:54:37.050Z,101371.47
2018-05-27T02:57:10.584Z,101373.70
2018-05-27T02:59:45.750Z,101375.67
2018-05-27T03:02:16.920Z,101370.64
2018-05-27T03:04:47.817Z,101369.05
2018-05-27T03:07:18.311Z,101375.60
2018-05-27T03:09:48.873Z,101381.41
2018-05-27T03:12:21.999Z,101374.23
2018-05-27T03:14:54.169Z,101373.45
2018-05-27T03:17:27.542Z,101373.86
2018-05-27T03:19:58.312Z,101359.82
2018-05-27T03:22:32.722Z,101358.17
2018-05-27T03:25:06.070Z,101364.27
2018-05-27T03:27:37.449Z,101356.20
2018-05-27T03:30:13.714Z,101336.23
2018-05-27T03:32:45.271Z,101355.02
2018-05-27T03:35:16.775Z,101353.80
2018-05-27T03:37:47.492Z,101351.36
2018-05-27T03:40:28.136Z,101349.73
2018-05-27T03:42:59.988Z,101360.58
2018-05-27T03:45:31.889Z,101360.95
2018-05-27T03:48:08.607Z,101356.97
2018-05-27T03:50:44.727Z,101361.69
2018-05-27T03:53:15.298Z,101364.52
2018-05-27T03:55:45.922Z,101363.19
2018-05-27T03:58:18.474Z,101368.01
2018-05-27T04:00:49.945Z,101371.51
2018-05-27T04:03:21.132Z,101365.52
2018-05-27T04:08:05.780Z,101369.44
2018-05-27T04:10:42.449Z,101368.17
2018-05-27T04:13:16.054Z,101368.17
2018-05-27T04:15:47.194Z,101365.83
2018-05-27T04:18:18.308Z,101364.20
2018-05-27T04:20:49.600Z,101360.14
2018-05-27T04:23:20.843Z,101364.88
2018-05-27T04:25:51.471Z,101363.31
2018-05-27T04:28:22.456Z,101369.39
2018-05-27T04:30:54.928Z,101373.38
2018-05-27T04:33:26.529Z,101375.09
2018-05-27T04:35:58.109Z,101379.05
2018-05-27T04:38:28.543Z,101375.04
2018-05-27T04:40:59.717Z,101377.39
2018-05-27T04:43:32.090Z,101377.25
2018-05-27T04:46:07.033Z,101377.07
2018-05-27T04:48:37.999Z,101381.02
2018-05-27T04:51:08.405Z,101376.11
2018-05-27T04:53:39.360Z,101383.97
2018-05-27T04:56:10.108Z,101378.33
2018-05-27T04:58:56.734Z,101379.47
2018-05-27T05:01:27.394Z,101377.81
2018-05-27T05:03:57.900Z,101375.28
2018-05-27T05:06:28.190Z,101377.47
2018-05-27T05:08:58.619Z,101379.98
2018-05-27T05:11:29.036Z,101372.39
2018-05-27T05:13:59.921Z,101380.33
2018-05-27T05:16:31.500Z,101376.36
2018-05-27T05:19:03.665Z,101382.29
2018-05-27T05:21:35.428Z,101375.60
2018-05-27T05:24:18.700Z,101372.66
2018-05-27T05:26:49.465Z,101374.89
2018-05-27T05:29:20.506Z,101373.12
2018-05-27T05:31:52.290Z,101364.56
2018-05-27T05:34:23.475Z,101365.20
2018-05-27T05:36:55.137Z,101366.14
2018-05-27T05:39:26.287Z,101371.59
2018-05-27T05:41:57.971Z,101368.41
2018-05-27T05:44:28.670Z,101369.88
2018-05-27T05:46:59.742Z,101369.95
2018-05-27T05:49:30.456Z,101376.17
2018-05-27T05:52:18.496Z,101381.88
2018-05-27T05:54:49.293Z,101376.98
2018-05-27T05:57:19.920Z,101375.92
2018-05-27T05:59:50.597Z,101377.62
2018-05-27T06:02:22.805Z,101381.28
2018-05-27T06:05:07.710Z,101388.80
2018-05-27T06:07:39.795Z,101390.61
2018-05-27T06:10:10.829Z,101389.93
2018-05-27T06:12:41.612Z,101391.66
2018-05-27T06:15:21.624Z,101396.45
2018-05-27T06:17:53.905Z,101398.08
2018-05-27T06:20:24.406Z,101396.13
2018-05-27T06:22:58.778Z,101408.88
2018-05-27T06:25:29.124Z,101402.67
2018-05-27T06:27:59.651Z,101406.33
2018-05-27T06:30:34.575Z,101410.75
2018-05-27T06:33:05.774Z,101408.33
2018-05-27T06:35:37.881Z,101405.70
2018-05-27T06:38:14.894Z,101404.64
2018-05-27T06:40:45.448Z,101403.25
2018-05-27T06:43:16.287Z,101400.20
2018-05-27T06:45:49.383Z,101404.55
2018-05-27T06:48:19.735Z,101395.39
2018-05-27T06:50:57.015Z,101398.27
2018-05-27T06:53:29.666Z,101390.84
2018-05-27T06:56:04.444Z,101398.88
2018-05-27T06:58:35.678Z,101399.67
2018-05-27T07:01:06.669Z,101393.43
2018-05-27T07:03:49.101Z,101390.45
2018-05-27T07:06:19.675Z,101396.53
2018-05-27T07:08:50.958Z,101398.54
2018-05-27T07:11:24.837Z,101393.59
2018-05-27T07:13:55.779Z,101400.97
2018-05-27T07:16:27.377Z,101398.48
2018-05-27T07:19:07.049Z,101387.80
2018-05-27T07:21:39.479Z,101394.14
2018-05-27T07:24:10.863Z,101388.97
2018-05-27T07:26:42.075Z,101391.16
2018-05-27T07:29:13.654Z,101390.77
2018-05-27T07:31:44.819Z,101390.27
2018-05-27T07:34:15.682Z,101383.88
2018-05-27T07:36:46.893Z,101379.37
2018-05-27T07:39:18.280Z,101368.10
2018-05-27T07:41:48.818Z,101376.69
2018-05-27T07:44:26.014Z,101373.66
2018-05-27T07:49:39.737Z,101375.36
2018-05-27T07:52:10.534Z,101371.84
2018-05-27T07:54:44.577Z,101369.05
2018-05-27T07:57:15.722Z,101368.17
2018-05-27T07:59:49.518Z,101375.91
2018-05-27T08:02:20.911Z,101361.06
2018-05-27T08:04:52.172Z,101360.89
2018-05-27T08:07:24.226Z,101363.66
2018-05-27T08:09:55.144Z,101358.57
2018-05-27T08:12:26.779Z,101351.92
2018-05-27T08:14:58.819Z,101349.93
2018-05-27T08:17:29.703Z,101358.09
2018-05-27T08:20:00.349Z,101353.97
2018-05-27T08:22:31.786Z,101358.00
2018-05-27T08:25:03.067Z,101355.22
2018-05-27T08:27:33.978Z,101357.16
2018-05-27T08:30:07.474Z,101352.74
2018-05-27T08:32:38.726Z,101352.71
2018-05-27T08:35:10.715Z,101347.39
2018-05-27T08:37:41.444Z,101344.09
2018-05-27T08:40:15.940Z,101348.17
2018-05-27T08:42:47.313Z,101347.08
2018-05-27T08:45:19.914Z,101345.43
2018-05-27T08:47:50.705Z,101354.63
2018-05-27T08:50:21.074Z,101349.86
2018-05-27T08:52:52.648Z,101350.94
2018-05-27T08:55:24.460Z,101350.56
2018-05-27T08:57:55.734Z,101351.89
2018-05-27T09:00:27.618Z,101353.57
2018-05-27T09:03:05.973Z,101354.97
2018-05-27T09:05:36.337Z,101354.70
2018-05-27T09:08:11.767Z,101354.80
2018-05-27T09:10:44.071Z,101352.53
2018-05-27T09:13:14.543Z,101356.73
2018-05-27T09:15:56.707Z,101355.69
2018-05-27T09:18:28.286Z,101360.20
2018-05-27T09:21:02.284Z,101349.17
2018-05-27T09:23:33.374Z,101358.00
2018-05-27T09:26:08.381Z,101352.92
2018-05-27T09:28:55.835Z,101351.77
2018-05-27T09:31:29.155Z,101346.91
2018-05-27T09:34:02.396Z,101342.77
2018-05-27T09:36:36.356Z,101343.53
2018-05-27T09:39:12.714Z,101333.56
2018-05-27T09:41:43.385Z,101334.69
2018-05-27T09:44:17.620Z,101339.18
2018-05-27T09:46:49.368Z,101341.86
2018-05-27T09:49:24.700Z,101335.83
2018-05-27T09:51:56.531Z,101333.98
2018-05-27T09:54:28.763Z,101333.34
2018-05-27T09:56:59.767Z,101329.38
2018-05-27T09:59:31.953Z,101337.27
2018-05-27T10:02:14.199Z,101334.42
2018-05-27T10:04:57.140Z,101333.98
2018-05-27T10:07:28.834Z,101333.27
2018-05-27T10:10:07.115Z,101326.72
2018-05-27T10:12:43.115Z,101316.52
2018-05-27T10:15:26.017Z,101316.35
2018-05-27T10:18:01.886Z,101313.97
2018-05-27T10:20:35.860Z,101314.86
2018-05-27T10:23:12.039Z,101301.32
2018-05-27T10:25:46.223Z,101294.74
2018-05-27T10:28:20.783Z,101295.34
2018-05-27T10:33:28.993Z,101296.28
2018-05-27T10:36:00.635Z,101287.33
2018-05-27T10:38:44.510Z,101278.89
2018-05-27T10:41:23.190Z,101282.20
2018-05-27T10:43:56.916Z,101286.48
2018-05-27T10:46:33.977Z,101291.95
2018-05-27T10:49:05.868Z,101288.42
2018-05-27T10:51:37.698Z,101291.53
2018-05-27T10:54:08.754Z,101292.19
2018-05-27T10:56:40.267Z,101288.52
2018-05-27T10:59:10.687Z,101290.73
2018-05-27T11:01:48.141Z,101294.11
2018-05-27T11:04:18.834Z,101294.16
2018-05-27T11:06:50.294Z,101298.41
2018-05-27T11:09:21.266Z,101297.04
2018-05-27T11:11:52.218Z,101290.69
2018-05-27T11:14:24.851Z,101297.41
2018-05-27T11:16:55.495Z,101306.23
2018-05-27T11:19:26.530Z,101299.23
2018-05-27T11:21:57.979Z,101305.73
2018-05-27T11:24:29.205Z,101298.61
2018-05-27T11:26:59.847Z,101295.09
2018-05-27T11:29:31.996Z,101291.26
2018-05-27T11:32:04.880Z,101291.17
2018-05-27T11:34:36.445Z,101286.13
2018-05-27T11:37:09.837Z,101287.27
2018-05-27T11:39:47.237Z,101285.07
2018-05-27T11:42:18.196Z,101288.13
2018-05-27T11:44:59.581Z,101287.08
2018-05-27T11:47:31.771Z,101284.45
2018-05-27T11:50:14.807Z,101274.95
2018-05-27T11:55:31.411Z,101280.79
2018-05-27T11:58:03.053Z,101276.20
2018-05-27T12:00:36.123Z,101281.33
2018-05-27T12:03:08.652Z,101280.83
2018-05-27T12:05:50.243Z,101272.88
2018-05-27T12:08:25.063Z,101267.94
2018-05-27T12:10:56.886Z,101270.99
2018-05-27T12:13:27.465Z,101264.98
2018-05-27T12:15:58.798Z,101268.59
2018-05-27T12:18:30.584Z,101263.91
2018-05-27T12:21:06.751Z,101257.37
2018-05-27T12:23:37.890Z,101260.87
2018-05-27T12:26:10.301Z,101262.39
2018-05-27T12:28:42.675Z,101253.42
2018-05-27T12:31:13.759Z,101250.84
2018-05-27T12:33:49.985Z,101242.30
2018-05-27T12:36:22.293Z,101251.85
2018-05-27T12:38:54.779Z,101255.95
2018-05-27T12:41:25.481Z,101260.84
2018-05-27T12:43:57.598Z,101260.40
2018-05-27T12:46:30.233Z,101272.55
2018-05-27T12:49:07.953Z,101258.84
2018-05-27T12:51:42.691Z,101268.84
2018-05-27T12:54:15.485Z,101260.83
2018-05-27T12:56:46.718Z,101256.11
2018-05-27T12:59:23.354Z,101248.27
2018-05-27T13:01:55.296Z,101249.05
2018-05-27T13:04:30.563Z,101240.91
2018-05-27T13:07:01.543Z,101240.20
2018-05-27T13:09:33.287Z,101231.18
2018-05-27T13:12:09.252Z,101226.92
2018-05-27T13:14:46.838Z,101222.62
2018-05-27T13:17:17.942Z,101206.03
2018-05-27T13:19:53.995Z,101197.91
2018-05-27T13:22:26.646Z,101192.69
2018-05-27T13:24:57.921Z,101203.14
2018-05-27T13:27:28.667Z,101203.17
2018-05-27T13:30:00.579Z,101195.56
2018-05-27T13:33:02.189Z,101205.80
2018-05-27T13:35:40.189Z,101214.23
2018-05-27T13:38:17.424Z,101217.14
2018-05-27T13:40:55.528Z,101223.80
2018-05-27T13:43:27.140Z,101221.95
2018-05-27T13:45:57.984Z,101225.23
2018-05-27T13:48:28.558Z,101229.66
2018-05-27T13:51:00.933Z,101223.14
2018-05-27T13:53:31.650Z,101230.28
2018-05-27T14:03:46.349Z,101222.84
2018-05-27T14:06:17.636Z,101225.80
2018-05-27T14:08:48.758Z,101228.14
2018-05-27T14:11:19.200Z,101234.08
2018-05-27T14:13:49.605Z,101234.99
2018-05-27T14:16:20.545Z,101236.83
2018-05-27T14:18:53.232Z,101238.98
2018-05-27T14:21:26.015Z,101228.13
2018-05-27T14:23:59.439Z,101231.41
2018-05-27T14:26:32.809Z,101224.83
2018-05-27T14:29:03.935Z,101215.76
2018-05-27T14:31:36.182Z,101216.80
2018-05-27T14:34:07.789Z,101209.91
2018-05-27T14:36:49.236Z,101209.26
2018-05-27T14:39:19.880Z,101206.59
2018-05-27T14:41:51.612Z,101196.07
2018-05-27T14:44:22.587Z,101189.41
2018-05-27T14:46:54.695Z,101201.71
2018-05-27T14:49:28.918Z,101202.52
2018-05-27T14:52:14.900Z,101210.42
2018-05-27T14:54:53.241Z,101207.80
2018-05-27T14:57:26.626Z,101206.03
2018-05-27T14:59:59.467Z,101209.02
2018-05-27T15:02:40.870Z,101211.84
2018-05-27T15:06:14.069Z,101195.22
2018-05-27T15:08:45.936Z,101224.31
2018-05-27T15:11:16.610Z,101232.94
2018-05-27T15:13:56.424Z,101228.14
2018-05-27T15:16:27.595Z,101232.23
2018-05-27T15:18:58.971Z,101238.97
2018-05-27T15:24:25.497Z,101227.33
2018-05-27T15:26:57.983Z,101239.99
2018-05-27T15:29:31.398Z,101239.77
2018-05-27T15:32:07.546Z,101243.20
2018-05-27T15:34:41.491Z,101262.42
2018-05-27T15:37:15.326Z,101266.16
2018-05-27T15:39:50.167Z,101273.28
2018-05-27T15:42:24.405Z,101267.70
2018-05-27T15:44:55.677Z,101268.78
2018-05-27T15:47:30.633Z,101261.03
2018-05-27T15:50:04.898Z,101261.50
2018-05-27T15:52:37.484Z,101253.36
2018-05-27T15:55:13.200Z,101248.20
2018-05-27T15:57:46.415Z,101248.21
2018-05-27T16:00:20.757Z,101246.35
2018-05-27T16:02:55.566Z,101247.00
2018-05-27T16:05:26.041Z,101237.19
2018-05-27T16:07:59.426Z,101238.36
2018-05-27T16:10:31.437Z,101232.88
2018-05-27T16:13:09.561Z,101219.89
2018-05-27T16:18:20.348Z,101253.45
2018-05-27T16:21:01.162Z,101260.74
2018-05-27T16:23:33.176Z,101263.67
2018-05-27T16:28:52.161Z,101269.78
2018-05-27T16:31:34.728Z,101267.70
2018-05-27T16:34:26.503Z,101270.38
2018-05-27T16:37:02.839Z,101275.30
2018-05-27T16:39:38.210Z,101268.81
2018-05-27T16:42:14.072Z,101275.48
2018-05-27T16:44:55.945Z,101273.20
2018-05-27T16:47:31.302Z,101259.34
2018-05-27T16:50:05.205Z,101270.22
2018-05-27T16:52:47.758Z,101272.20
2018-05-27T16:55:53.991Z,101282.41
2018-05-27T16:58:33.841Z,101278.06
2018-05-27T17:01:13.398Z,101281.36
2018-05-27T17:04:05.290Z,101275.16
2018-05-27T17:06:40.973Z,101270.01
2018-05-27T17:09:13.917Z,101270.00
2018-05-27T17:11:46.834Z,101264.37
2018-05-27T17:14:25.537Z,101263.55
2018-05-27T17:17:01.403Z,101247.30
2018-05-27T17:19:38.199Z,101249.30
2018-05-27T17:22:12.466Z,101239.66
2018-05-27T17:24:55.205Z,101225.42
2018-05-27T17:27:39.827Z,101210.81
2018-05-27T17:30:21.803Z,101184.09
2018-05-27T17:33:03.207Z,101167.44
2018-05-27T17:35:35.157Z,101162.65
2018-05-27T17:38:06.094Z,101147.48
2018-05-27T17:40:48.564Z,101133.77
2018-05-27T17:43:28.278Z,101127.86
2018-05-27T17:46:05.007Z,101130.58
2018-05-27T17:48:38.697Z,101134.19
2018-05-27T17:51:25.443Z,101129.92
2018-05-27T17:53:57.510Z,101128.41
2018-05-27T17:56:28.917Z,101135.76
2018-05-27T17:59:03.839Z,101129.67
2018-05-27T18:01:42.602Z,101135.30
2018-05-27T18:04:16.372Z,101134.98
2018-05-27T18:06:46.994Z,101158.59
2018-05-27T18:09:27.565Z,101170.99
2018-05-27T18:12:03.509Z,101185.91
2018-05-27T18:14:35.744Z,101194.08
2018-05-27T18:17:10.486Z,101193.13
2018-05-27T18:19:43.982Z,101188.88
2018-05-27T18:22:16.392Z,101191.12
2018-05-27T18:24:49.151Z,101189.33
2018-05-27T18:27:35.901Z,101187.16
2018-05-27T18:30:14.423Z,101191.20
2018-05-27T18:32:45.576Z,101196.03
2018-05-27T18:35:22.837Z,101193.16
2018-05-27T18:38:00.430Z,101198.80
2018-05-27T18:40:31.472Z,101202.56
2018-05-27T18:43:04.835Z,101193.74
2018-05-27T18:45:39.108Z,101205.20
2018-05-27T18:51:06.055Z,101218.52
2018-05-27T18:53:40.683Z,101224.70
2018-05-27T18:56:16.789Z,101223.07
2018-05-27T18:58:49.161Z,101228.36
2018-05-27T19:01:21.048Z,101227.09
2018-05-27T19:03:53.575Z,101224.39
2018-05-27T19:06:34.197Z,101227.63
2018-05-27T19:09:42.790Z,101228.16
2018-05-27T19:12:14.735Z,101226.47
2018-05-27T19:14:54.319Z,101225.56
2018-05-27T19:17:34.948Z,101222.70
2018-05-27T19:20:19.406Z,101226.63
2018-05-27T19:22:55.238Z,101223.17
2018-05-27T19:25:45.017Z,101225.81
2018-05-27T19:28:26.269Z,101222.36
2018-05-27T19:31:08.476Z,101218.34
2018-05-27T19:33:51.034Z,101228.99
2018-05-27T19:36:29.269Z,101231.72
2018-05-27T19:39:07.927Z,101229.44
2018-05-27T19:41:44.210Z,101242.03
2018-05-27T19:47:07.367Z,101266.94
2018-05-27T19:49:38.455Z,101253.64
2018-05-27T19:52:09.852Z,101269.44
2018-05-27T19:54:43.649Z,101269.02
2018-05-27T19:57:21.483Z,101254.97
2018-05-27T19:59:54.405Z,101268.25
2018-05-27T20:02:25.982Z,101265.50
2018-05-27T20:04:58.435Z,101267.59
2018-05-27T20:07:45.634Z,101278.23
2018-05-27T20:10:25.445Z,101278.39
2018-05-27T20:12:56.238Z,101266.00
2018-05-27T20:15:28.403Z,101263.11
2018-05-27T20:18:11.226Z,101244.69
2018-05-27T20:20:43.185Z,101254.41
2018-05-27T20:23:30.561Z,101242.52
2018-05-27T20:26:10.076Z,101241.27
2018-05-27T20:28:46.334Z,101236.69
2018-05-27T20:31:19.420Z,101245.94
2018-05-27T20:33:53.563Z,101261.88
2018-05-27T20:36:37.088Z,101260.59
2018-05-27T20:42:51.823Z,101278.39
2018-05-27T20:45:55.871Z,101274.47
2018-05-27T20:48:27.411Z,101278.18
2018-05-27T20:51:01.770Z,101284.05
2018-05-27T20:53:36.485Z,101283.66
2018-05-27T20:56:14.785Z,101284.30
2018-05-27T20:58:45.344Z,101288.52
2018-05-27T21:01:17.141Z,101285.67
2018-05-27T21:03:47.747Z,101287.78
2018-05-27T21:06:20.019Z,101285.14
2018-05-27T21:08:50.857Z,101285.33
2018-05-27T21:13:47.298Z,101284.12
2018-05-27T21:16:21.062Z,101272.50
2018-05-27T21:18:54.706Z,101274.78
2018-05-27T21:21:33.523Z,101263.30
2018-05-27T21:24:06.335Z,101277.84
2018-05-27T21:26:55.176Z,101279.82
2018-05-27T21:32:11.071Z,101279.52
2018-05-27T21:34:41.839Z,101282.52
2018-05-27T21:37:12.889Z,101272.19
2018-05-27T21:39:44.115Z,101273.75
2018-05-27T21:45:13.657Z,101271.55
2018-05-27T21:47:49.184Z,101270.41
2018-05-27T21:50:24.936Z,101265.27
2018-05-27T21:52:56.302Z,101264.45
2018-05-27T21:55:42.876Z,101261.81
2018-05-27T21:58:15.831Z,101259.09
2018-05-27T22:00:46.829Z,101265.67
2018-05-27T22:03:18.365Z,101251.53
2018-05-27T22:05:51.063Z,101261.81
2018-05-27T22:11:17.224Z,101258.08
2018-05-27T22:13:53.261Z,101262.52
2018-05-27T22:16:27.047Z,101260.91
2018-05-27T22:18:58.316Z,101263.91
2018-05-27T22:21:38.576Z,101265.80
2018-05-27T22:24:12.199Z,101268.34
2018-05-27T22:26:46.003Z,101268.56
2018-05-27T22:29:21.278Z,101262.89
2018-05-27T22:31:55.670Z,101260.27
2018-05-27T22:34:27.896Z,101267.14
2018-05-27T22:37:09.589Z,101262.84
2018-05-27T22:39:44.030Z,101264.62
2018-05-27T22:42:23.742Z,101263.39
2018-05-27T22:47:35.529Z,101263.48
2018-05-27T22:50:06.724Z,101267.82
2018-05-27T22:52:37.389Z,101273.83
2018-05-27T22:55:14.541Z,101275.16
2018-05-27T22:57:56.737Z,101278.46
2018-05-27T23:00:30.738Z,101277.78
2018-05-27T23:03:01.579Z,101273.73
2018-05-27T23:05:33.520Z,101275.73
2018-05-27T23:08:05.867Z,101272.28
2018-05-27T23:10:40.326Z,101283.02
2018-05-27T23:13:11.055Z,101282.73
2018-05-27T23:15:42.050Z,101290.48
2018-05-27T23:18:14.568Z,101299.27
2018-05-27T23:20:54.825Z,101294.31
2018-05-27T23:23:26.427Z,101293.84
2018-05-27T23:25:59.809Z,101301.23
2018-05-27T23:28:38.113Z,101297.97
2018-05-27T23:31:09.348Z,101305.02
2018-05-27T23:33:42.784Z,101304.22
2018-05-27T23:36:14.762Z,101302.34
2018-05-27T23:38:46.178Z,101312.30
2018-05-27T23:41:16.746Z,101315.14
2018-05-27T23:43:48.262Z,101311.48
2018-05-27T23:46:20.021Z,101309.61
2018-05-27T23:48:50.624Z,101309.52
2018-05-27T23:51:21.443Z,101300.20
2018-05-27T23:53:56.683Z,101295.91
2018-05-27T23:56:29.544Z,101294.95
2018-05-27T23:59:06.417Z,101299.61
